createdAt,value
2023-04-01T00:01:28.444Z,22.70
2023-04-01T00:03:55.783Z,19.77
2023-04-01T00:06:23.482Z,18.52
2023-04-01T00:08:50.651Z,18.23
2023-04-01T00:11:18.197Z,15.88
2023-04-01T00:13:48.407Z,20.25
2023-04-01T00:18:48.273Z,18.20
2023-04-01T00:21:16.972Z,18.92
2023-04-01T00:23:44.897Z,21.80
2023-04-01T00:26:13.250Z,21.38
2023-04-01T00:28:41.290Z,22.55
2023-04-01T00:31:10.748Z,19.60
2023-04-01T00:33:38.535Z,23.40
2023-04-01T00:36:18.276Z,22.00
2023-04-01T00:38:45.858Z,21.75
2023-04-01T00:41:15.791Z,19.10
2023-04-01T00:43:44.530Z,19.35
2023-04-01T00:46:12.094Z,24.15
2023-04-01T00:48:51.841Z,19.42
2023-04-01T00:51:24.669Z,21.23
2023-04-01T00:53:54.903Z,20.58
2023-04-01T00:56:56.974Z,20.52
2023-04-01T00:59:27.632Z,23.23
2023-04-01T01:01:55.023Z,19.15
2023-04-01T01:04:31.357Z,19.83
2023-04-01T01:07:15.831Z,18.52
2023-04-01T01:10:11.358Z,16.45
2023-04-01T01:12:47.326Z,16.77
2023-04-01T01:15:36.022Z,13.95
2023-04-01T01:18:27.488Z,15.10
2023-04-01T01:21:21.953Z,14.98
2023-04-01T01:23:48.764Z,14.77
2023-04-01T01:26:37.316Z,16.80
2023-04-01T01:29:38.735Z,16.05
2023-04-01T01:32:30.554Z,16.58
2023-04-01T01:35:21.327Z,16.45
2023-04-01T01:37:53.379Z,19.58
2023-04-01T01:40:21.290Z,19.60
2023-04-01T01:42:53.089Z,18.25
2023-04-01T01:45:22.974Z,18.00
2023-04-01T01:47:51.224Z,18.50
2023-04-01T01:50:20.649Z,20.15
2023-04-01T01:52:47.495Z,19.83
2023-04-01T01:55:31.497Z,20.45
2023-04-01T01:58:24.611Z,19.20
2023-04-01T02:00:58.354Z,18.27
2023-04-01T02:03:28.623Z,18.40
2023-04-01T02:05:58.264Z,17.65
2023-04-01T02:08:43.865Z,17.10
2023-04-01T02:11:14.099Z,20.00
2023-04-01T02:13:55.208Z,17.55
2023-04-01T02:16:28.354Z,15.25
2023-04-01T02:18:57.791Z,17.77
2023-04-01T02:21:29.035Z,19.08
2023-04-01T02:23:57.687Z,14.82
2023-04-01T02:26:26.754Z,14.13
2023-04-01T02:28:58.357Z,13.18
2023-04-01T02:31:26.536Z,13.68
2023-04-01T02:33:54.658Z,13.40
2023-04-01T02:36:22.013Z,13.73
2023-04-01T02:38:50.826Z,13.27
2023-04-01T02:41:17.736Z,12.80
2023-04-01T02:43:44.599Z,10.55
2023-04-01T02:46:11.638Z,10.30
2023-04-01T02:48:39.024Z,12.13
2023-04-01T02:51:06.067Z,12.57
2023-04-01T02:53:32.909Z,12.30
2023-04-01T02:55:59.750Z,13.10
2023-04-01T02:58:26.716Z,29.10
2023-04-01T03:00:53.709Z,18.55
2023-04-01T03:03:20.869Z,13.30
2023-04-01T03:05:47.698Z,12.00
2023-04-01T03:08:14.515Z,11.95
2023-04-01T03:10:41.421Z,14.38
2023-04-01T03:13:08.439Z,11.63
2023-04-01T03:15:35.481Z,14.80
2023-04-01T03:18:02.387Z,16.17
2023-04-01T03:20:29.516Z,20.08
2023-04-01T03:22:56.596Z,18.40
2023-04-01T03:25:23.729Z,19.27
2023-04-01T03:27:51.334Z,16.30
2023-04-01T03:30:18.382Z,16.02
2023-04-01T03:32:50.522Z,13.48
2023-04-01T03:35:17.515Z,21.08
2023-04-01T03:37:46.319Z,13.95
2023-04-01T03:40:13.432Z,14.18
2023-04-01T03:42:40.462Z,25.75
2023-04-01T03:45:08.014Z,14.88
2023-04-01T03:47:34.912Z,15.50
2023-04-01T03:50:01.769Z,12.90
2023-04-01T03:52:28.641Z,13.77
2023-04-01T03:54:55.762Z,15.75
2023-04-01T03:57:22.719Z,16.55
2023-04-01T03:59:49.641Z,15.00
2023-04-01T04:02:16.909Z,14.88
2023-04-01T04:04:44.480Z,14.80
2023-04-01T04:07:11.613Z,16.00
2023-04-01T04:10:13.934Z,15.02
2023-04-01T04:12:41.561Z,12.35
2023-04-01T04:15:09.782Z,11.80
2023-04-01T04:17:37.469Z,15.75
2023-04-01T04:20:04.684Z,23.73
2023-04-01T04:22:31.578Z,22.65
2023-04-01T04:24:58.575Z,17.88
2023-04-01T04:27:25.603Z,13.32
2023-04-01T04:30:08.189Z,91.63
2023-04-01T04:32:35.603Z,69.32
2023-04-01T04:35:03.103Z,52.40
2023-04-01T04:37:30.262Z,26.27
2023-04-01T04:39:57.142Z,35.50
2023-04-01T04:42:24.068Z,19.98
2023-04-01T04:44:55.708Z,25.33
2023-04-01T04:47:22.897Z,16.48
2023-04-01T04:49:49.914Z,16.67
2023-04-01T04:52:16.975Z,14.52
2023-04-01T04:54:43.845Z,20.38
2023-04-01T04:57:11.149Z,25.85
2023-04-01T04:59:44.987Z,18.55
2023-04-01T05:02:16.420Z,20.67
2023-04-01T05:04:43.415Z,21.70
2023-04-01T05:07:11.541Z,20.15
2023-04-01T05:09:39.212Z,16.23
2023-04-01T05:12:06.413Z,13.57
2023-04-01T05:14:58.531Z,28.27
2023-04-01T05:17:26.361Z,19.90
2023-04-01T05:19:53.901Z,18.05
2023-04-01T05:22:21.287Z,19.35
2023-04-01T05:24:48.609Z,12.25
2023-04-01T05:27:15.888Z,12.57
2023-04-01T05:29:43.701Z,16.20
2023-04-01T05:32:26.615Z,8.70
2023-04-01T05:34:54.336Z,11.23
2023-04-01T05:37:21.252Z,9.93
2023-04-01T05:39:48.057Z,12.30
2023-04-01T05:42:16.854Z,14.07
2023-04-01T05:44:43.960Z,15.80
2023-04-01T05:47:29.478Z,14.57
2023-04-01T05:49:56.548Z,19.15
2023-04-01T05:52:23.380Z,14.82
2023-04-01T05:54:50.462Z,10.38
2023-04-01T05:57:18.323Z,12.63
2023-04-01T05:59:46.884Z,11.75
2023-04-01T06:02:14.120Z,11.15
2023-04-01T06:04:41.525Z,11.82
2023-04-01T06:07:16.931Z,10.43
2023-04-01T06:09:45.336Z,10.32
2023-04-01T06:12:31.110Z,11.27
2023-04-01T06:15:26.378Z,13.63
2023-04-01T06:18:15.128Z,14.13
2023-04-01T06:20:57.228Z,44.17
2023-04-01T06:23:36.284Z,16.30
2023-04-01T06:26:12.378Z,12.63
2023-04-01T06:28:42.217Z,18.30
2023-04-01T06:31:26.733Z,12.52
2023-04-01T06:34:22.966Z,13.27
2023-04-01T06:37:00.142Z,16.10
2023-04-01T06:39:45.884Z,14.75
2023-04-01T06:42:53.216Z,17.63
2023-04-01T06:46:13.042Z,20.50
2023-04-01T06:49:22.710Z,16.02
2023-04-01T06:52:36.998Z,19.73
2023-04-01T06:55:26.464Z,16.35
2023-04-01T06:58:39.508Z,15.63
2023-04-01T07:01:18.122Z,14.50
2023-04-01T07:03:51.738Z,15.63
2023-04-01T07:06:27.767Z,16.05
2023-04-01T07:09:03.534Z,13.65
2023-04-01T07:11:54.870Z,12.18
2023-04-01T07:14:43.820Z,11.18
2023-04-01T07:17:20.008Z,14.00
2023-04-01T07:19:55.301Z,13.23
2023-04-01T07:22:31.430Z,8.90
2023-04-01T07:25:18.820Z,18.38
2023-04-01T07:27:57.909Z,21.48
2023-04-01T07:30:28.223Z,14.23
2023-04-01T07:33:00.017Z,24.13
2023-04-01T07:35:37.657Z,19.77
2023-04-01T07:38:36.233Z,13.65
2023-04-01T07:41:16.832Z,15.38
2023-04-01T07:43:52.864Z,11.50
2023-04-01T07:46:48.420Z,17.98
2023-04-01T07:49:35.555Z,13.38
2023-04-01T07:52:28.007Z,13.77
2023-04-01T07:55:25.667Z,11.07
2023-04-01T07:58:12.257Z,9.52
2023-04-01T08:00:48.993Z,14.57
2023-04-01T08:03:35.023Z,10.73
2023-04-01T08:06:14.600Z,13.15
2023-04-01T08:08:49.944Z,10.57
2023-04-01T08:11:59.384Z,11.70
2023-04-01T08:15:25.015Z,12.48
2023-04-01T08:18:42.679Z,12.77
2023-04-01T08:21:17.401Z,11.52
2023-04-01T08:23:49.688Z,12.52
2023-04-01T08:26:31.284Z,9.98
2023-04-01T08:29:48.177Z,11.40
2023-04-01T08:32:43.890Z,9.75
2023-04-01T08:35:28.873Z,10.07
2023-04-01T08:38:07.383Z,33.03
2023-04-01T08:40:52.817Z,11.95
2023-04-01T08:43:51.369Z,15.10
2023-04-01T08:46:55.311Z,10.45
2023-04-01T08:49:32.955Z,17.10
2023-04-01T08:52:28.748Z,13.32
2023-04-01T08:55:22.182Z,7.57
2023-04-01T09:01:16.240Z,16.98
2023-04-01T09:03:56.012Z,7.45
2023-04-01T09:06:41.794Z,10.55
2023-04-01T09:09:21.902Z,11.18
2023-04-01T09:12:28.662Z,17.63
2023-04-01T09:15:19.938Z,10.32
2023-04-01T09:18:13.126Z,16.15
2023-04-01T09:20:56.552Z,7.00
2023-04-01T09:23:49.744Z,12.73
2023-04-01T09:26:54.744Z,10.13
2023-04-01T09:29:27.769Z,8.18
2023-04-01T09:32:00.679Z,8.80
2023-04-01T09:35:02.107Z,13.07
2023-04-01T09:37:52.231Z,9.90
2023-04-01T09:40:55.407Z,11.80
2023-04-01T09:43:40.789Z,9.07
2023-04-01T09:46:18.768Z,14.00
2023-04-01T09:49:19.774Z,7.78
2023-04-01T09:52:24.608Z,12.63
2023-04-01T09:55:00.677Z,9.00
2023-04-01T09:58:08.233Z,7.50
2023-04-01T10:01:24.694Z,10.60
2023-04-01T10:04:16.676Z,9.52
2023-04-01T10:07:02.065Z,11.25
2023-04-01T10:09:47.746Z,10.77
2023-04-01T10:12:20.872Z,13.32
2023-04-01T10:15:12.389Z,14.80
2023-04-01T10:17:42.870Z,10.93
2023-04-01T10:20:32.750Z,8.13
2023-04-01T10:23:21.255Z,27.85
2023-04-01T10:26:26.894Z,26.27
2023-04-01T10:29:13.694Z,37.53
2023-04-01T10:31:45.172Z,9.07
2023-04-01T10:34:49.870Z,10.38
2023-04-01T10:37:25.959Z,15.18
2023-04-01T10:40:04.028Z,15.45
2023-04-01T10:43:06.191Z,15.23
2023-04-01T10:46:02.262Z,8.10
2023-04-01T10:48:48.574Z,7.55
2023-04-01T10:51:43.382Z,37.92
2023-04-01T10:54:37.600Z,13.38
2023-04-01T10:57:49.265Z,16.40
2023-04-01T11:01:04.169Z,12.95
2023-04-01T11:03:55.449Z,22.35
2023-04-01T11:07:12.460Z,14.40
2023-04-01T11:09:39.469Z,17.15
2023-04-01T11:12:34.028Z,10.98
2023-04-01T11:15:38.271Z,11.23
2023-04-01T11:18:36.185Z,16.63
2023-04-01T11:21:26.594Z,22.23
2023-04-01T11:24:07.143Z,11.75
2023-04-01T11:27:09.475Z,18.48
2023-04-01T11:29:59.685Z,8.35
2023-04-01T11:32:34.930Z,11.73
2023-04-01T11:35:02.274Z,7.75
2023-04-01T11:37:35.713Z,10.52
2023-04-01T11:43:45.387Z,16.35
2023-04-01T11:46:57.908Z,10.18
2023-04-01T11:49:34.526Z,9.20
2023-04-01T11:52:45.486Z,13.57
2023-04-01T11:55:41.792Z,12.15
2023-04-01T11:58:20.773Z,11.02
2023-04-01T12:01:12.283Z,18.98
2023-04-01T12:03:55.716Z,14.57
2023-04-01T12:06:22.637Z,13.73
2023-04-01T12:08:54.697Z,15.07
2023-04-01T12:11:51.365Z,12.43
2023-04-01T12:14:36.719Z,12.23
2023-04-01T12:17:29.443Z,11.85
2023-04-01T12:20:14.308Z,14.63
2023-04-01T12:23:13.756Z,20.98
2023-04-01T12:26:07.773Z,14.10
2023-04-01T12:28:53.077Z,14.95
2023-04-01T12:31:30.989Z,13.48
2023-04-01T12:33:57.745Z,12.90
2023-04-01T12:36:30.484Z,15.77
2023-04-01T12:39:21.471Z,24.13
2023-04-01T12:42:18.774Z,18.55
2023-04-01T12:45:13.478Z,18.70
2023-04-01T12:47:40.849Z,18.10
2023-04-01T12:50:17.612Z,27.55
2023-04-01T12:53:12.860Z,28.10
2023-04-01T12:55:42.269Z,33.50
2023-04-01T12:58:18.154Z,22.27
2023-04-01T13:01:03.916Z,24.33
2023-04-01T13:03:49.065Z,16.48
2023-04-01T13:06:28.995Z,31.95
2023-04-01T13:09:32.787Z,40.35
2023-04-01T13:12:18.314Z,25.08
2023-04-01T13:15:09.985Z,12.43
2023-04-01T13:17:52.002Z,18.65
2023-04-01T13:20:21.986Z,24.10
2023-04-01T13:23:10.727Z,17.58
2023-04-01T13:26:13.662Z,17.60
2023-04-01T13:28:59.100Z,15.40
2023-04-01T13:31:44.253Z,22.02
2023-04-01T13:34:23.871Z,22.90
2023-04-01T13:37:14.012Z,16.25
2023-04-01T13:40:07.163Z,24.25
2023-04-01T13:42:33.948Z,21.33
2023-04-01T13:45:12.330Z,23.23
2023-04-01T13:47:51.482Z,19.20
2023-04-01T13:50:27.749Z,24.52
2023-04-01T13:53:32.141Z,20.20
2023-04-01T13:56:31.808Z,26.60
2023-04-01T13:59:10.429Z,31.40
2023-04-01T14:01:57.396Z,23.92
2023-04-01T14:04:48.641Z,29.27
2023-04-01T14:07:55.155Z,30.63
2023-04-01T14:10:42.924Z,33.58
2023-04-01T14:13:30.929Z,19.67
2023-04-01T14:16:06.676Z,21.08
2023-04-01T14:18:33.421Z,21.02
2023-04-01T14:21:26.860Z,25.10
2023-04-01T14:24:02.587Z,19.90
2023-04-01T14:27:07.039Z,20.95
2023-04-01T14:29:51.691Z,36.17
2023-04-01T14:32:33.404Z,27.00
2023-04-01T14:35:15.866Z,16.25
2023-04-01T14:38:19.735Z,15.70
2023-04-01T14:41:07.966Z,26.75
2023-04-01T14:44:22.332Z,16.92
2023-04-01T14:47:03.928Z,21.58
2023-04-01T14:49:52.176Z,23.13
2023-04-01T14:52:39.700Z,15.43
2023-04-01T14:55:27.664Z,25.02
2023-04-01T14:58:09.902Z,20.05
2023-04-01T15:00:49.431Z,24.75
2023-04-01T15:03:38.344Z,17.85
2023-04-01T15:06:42.527Z,24.52
2023-04-01T15:09:22.884Z,19.45
2023-04-01T15:11:58.538Z,24.15
2023-04-01T15:14:51.798Z,21.50
2023-04-01T15:17:32.440Z,19.15
2023-04-01T15:20:27.398Z,26.48
2023-04-01T15:23:03.476Z,18.58
2023-04-01T15:25:55.127Z,17.30
2023-04-01T15:28:45.451Z,26.80
2023-04-01T15:31:22.628Z,23.45
2023-04-01T15:34:32.508Z,18.27
2023-04-01T15:37:29.399Z,28.42
2023-04-01T15:40:06.428Z,28.52
2023-04-01T15:42:57.319Z,20.63
2023-04-01T15:45:59.133Z,25.98
2023-04-01T16:14:10.572Z,3.90
2023-04-01T16:17:02.169Z,1.95
2023-04-01T16:19:32.345Z,2.72
2023-04-01T16:22:09.398Z,6.18
2023-04-01T16:24:46.838Z,3.83
2023-04-01T16:27:16.472Z,2.50
2023-04-01T16:30:01.554Z,6.22
2023-04-01T16:32:37.293Z,3.72
2023-04-01T16:35:22.947Z,3.25
2023-04-01T16:38:00.908Z,3.25
2023-04-01T16:41:12.282Z,3.67
2023-04-01T16:43:40.753Z,2.88
2023-04-01T16:46:21.022Z,2.83
2023-04-01T16:48:50.855Z,2.78
2023-04-01T16:51:19.138Z,3.22
2023-04-01T16:54:07.928Z,2.03
2023-04-01T16:56:46.169Z,2.95
2023-04-01T16:59:20.884Z,3.05
2023-04-01T17:01:55.522Z,1.70
2023-04-01T17:04:42.967Z,2.22
2023-04-01T17:07:34.130Z,5.68
2023-04-01T17:10:19.653Z,3.72
2023-04-01T17:13:20.694Z,5.00
2023-04-01T17:16:27.184Z,2.83
2023-04-01T17:19:09.012Z,6.07
2023-04-01T17:21:38.514Z,2.83
2023-04-01T17:24:32.096Z,3.13
2023-04-01T17:27:17.469Z,2.30
2023-04-01T17:30:02.625Z,1.60
2023-04-01T17:33:12.906Z,4.10
2023-04-01T17:35:55.176Z,1.08
2023-04-01T17:38:27.816Z,5.28
2023-04-01T17:41:31.449Z,5.47
2023-04-01T17:44:16.626Z,1.88
2023-04-01T17:46:57.816Z,1.33
2023-04-01T17:49:41.035Z,1.58
2023-04-01T17:52:32.024Z,1.60
2023-04-01T17:55:27.111Z,9.98
2023-04-01T17:58:04.989Z,2.25
2023-04-01T18:01:01.846Z,1.27
2023-04-01T18:03:59.576Z,1.02
2023-04-01T18:06:55.807Z,1.67
2023-04-01T18:09:38.938Z,0.80
2023-04-01T18:12:36.627Z,1.80
2023-04-01T18:15:16.932Z,2.53
2023-04-01T18:17:59.700Z,0.90
2023-04-01T18:20:42.553Z,1.70
2023-04-01T18:23:24.549Z,2.20
2023-04-01T18:26:03.356Z,1.90
2023-04-01T18:28:46.435Z,2.10
2023-04-01T18:31:21.908Z,1.90
2023-04-01T18:33:50.195Z,1.85
2023-04-01T18:36:25.786Z,1.85
2023-04-01T18:39:01.719Z,2.30
2023-04-01T18:41:58.434Z,2.30
2023-04-01T18:44:48.493Z,3.88
2023-04-01T18:47:48.237Z,7.82
2023-04-01T18:50:26.313Z,7.15
2023-04-01T18:53:10.198Z,8.80
2023-04-01T18:55:47.847Z,2.15
2023-04-01T18:58:24.145Z,4.20
2023-04-01T19:00:56.654Z,3.67
2023-04-01T19:03:50.074Z,3.13
2023-04-01T19:06:24.314Z,6.43
2023-04-01T19:08:52.879Z,5.15
2023-04-01T19:11:25.701Z,6.47
2023-04-01T19:14:05.539Z,7.53
2023-04-01T19:16:45.086Z,8.35
2023-04-01T19:19:31.518Z,8.20
2023-04-01T19:22:04.923Z,6.75
2023-04-01T19:25:16.766Z,7.70
2023-04-01T19:28:18.558Z,9.10
2023-04-01T19:30:48.391Z,41.75
2023-04-01T19:33:34.133Z,10.30
2023-04-01T19:36:12.976Z,27.05
2023-04-01T19:38:44.257Z,6.22
2023-04-01T19:41:34.646Z,4.65
2023-04-01T19:44:21.999Z,2.22
2023-04-01T19:47:05.969Z,1.55
2023-04-01T19:49:54.613Z,2.22
2023-04-01T19:52:55.063Z,2.38
2023-04-01T19:55:49.121Z,2.15
2023-04-01T19:58:45.476Z,1.92
2023-04-01T20:01:44.275Z,2.45
2023-04-01T20:04:21.201Z,2.70
2023-04-01T20:07:08.261Z,2.88
2023-04-01T20:09:48.515Z,1.38
2023-04-01T20:12:30.223Z,1.35
2023-04-01T20:15:01.932Z,1.30
2023-04-01T20:17:41.142Z,1.38
2023-04-01T20:20:09.393Z,1.88
2023-04-01T20:22:45.539Z,1.02
2023-04-01T20:26:05.759Z,0.85
2023-04-01T20:29:11.216Z,1.55
2023-04-01T20:31:51.182Z,2.55
2023-04-01T20:34:46.780Z,2.63
2023-04-01T20:37:34.818Z,3.40
2023-04-01T20:40:04.770Z,3.05
2023-04-01T20:42:55.992Z,2.60
2023-04-01T20:45:58.509Z,4.68
2023-04-01T20:48:35.323Z,3.20
2023-04-01T20:51:23.798Z,3.10
2023-04-01T20:53:59.340Z,3.55
2023-04-01T20:56:32.485Z,13.23
2023-04-01T20:59:05.167Z,3.53
2023-04-01T21:02:03.264Z,4.93
2023-04-01T21:04:35.959Z,1.83
2023-04-01T21:07:12.233Z,2.50
2023-04-01T21:09:41.846Z,1.85
2023-04-01T21:12:42.268Z,2.70
2023-04-01T21:15:15.031Z,3.67
2023-04-01T21:18:00.702Z,2.03
2023-04-01T21:20:33.465Z,1.10
2023-04-01T21:23:21.817Z,2.00
2023-04-01T21:25:59.448Z,2.65
2023-04-01T21:28:48.712Z,1.33
2023-04-01T21:31:38.635Z,1.50
2023-04-01T21:34:26.865Z,2.60
2023-04-01T21:37:19.692Z,2.22
2023-04-01T21:40:17.535Z,2.60
2023-04-01T21:43:02.298Z,2.70
2023-04-01T21:45:58.661Z,1.23
2023-04-01T21:49:02.685Z,2.45
2023-04-01T21:51:35.855Z,2.97
2023-04-01T21:54:20.909Z,3.45
2023-04-01T21:57:19.728Z,2.40
2023-04-01T22:00:25.223Z,1.08
2023-04-01T22:03:19.793Z,1.77
2023-04-01T22:06:05.047Z,1.50
2023-04-01T22:08:50.159Z,1.73
2023-04-01T22:11:46.011Z,3.92
2023-04-01T22:14:44.748Z,4.85
2023-04-01T22:17:31.143Z,2.55
2023-04-01T22:20:11.832Z,1.85
2023-04-01T22:22:58.321Z,14.85
2023-04-01T22:25:50.150Z,12.13
2023-04-01T22:28:23.277Z,5.97
2023-04-01T22:30:57.563Z,3.97
2023-04-01T22:34:08.918Z,3.78
2023-04-01T22:36:49.306Z,9.07
2023-04-01T22:39:37.618Z,20.17
2023-04-01T22:42:43.695Z,8.35
2023-04-01T22:45:13.824Z,8.77
2023-04-01T22:47:46.278Z,7.80
2023-04-01T22:50:21.714Z,4.97
2023-04-01T22:52:59.600Z,3.70
2023-04-01T22:55:34.907Z,5.10
2023-04-01T22:58:07.229Z,6.20
2023-04-01T23:00:48.197Z,3.42
2023-04-01T23:03:32.455Z,3.50
2023-04-01T23:06:01.739Z,8.55
2023-04-01T23:09:01.521Z,3.75
2023-04-01T23:11:45.783Z,1.85
2023-04-01T23:14:21.552Z,4.47
2023-04-01T23:16:54.622Z,3.75
2023-04-01T23:19:42.425Z,2.03
2023-04-01T23:22:27.820Z,2.38
2023-04-01T23:25:15.891Z,10.20
2023-04-01T23:27:59.817Z,2.78
2023-04-01T23:30:41.838Z,1.88
2023-04-01T23:33:32.424Z,3.30
2023-04-01T23:36:06.470Z,4.47
2023-04-01T23:38:40.531Z,2.55
2023-04-01T23:41:09.691Z,3.63
2023-04-01T23:43:43.326Z,3.85
2023-04-01T23:46:10.440Z,3.47
2023-04-01T23:48:43.722Z,4.35
2023-04-01T23:51:37.453Z,4.45
2023-04-01T23:54:14.561Z,2.25
2023-04-01T23:56:55.906Z,1.92
2023-04-01T23:59:32.317Z,1.48
